createdAt,value
2024-02-19T00:01:52.154Z,1.70
2024-02-19T00:05:54.375Z,2.00
2024-02-19T00:09:56.026Z,1.50
2024-02-19T00:13:58.243Z,1.50
2024-02-19T00:17:59.840Z,1.57
2024-02-19T00:22:01.358Z,1.40
2024-02-19T00:26:03.296Z,1.60
2024-02-19T00:30:05.884Z,1.30
2024-02-19T00:34:07.384Z,1.43
2024-02-19T00:38:10.188Z,1.83
2024-02-19T00:42:11.572Z,1.70
2024-02-19T00:46:12.998Z,1.40
2024-02-19T00:50:14.535Z,1.77
2024-02-19T00:54:16.164Z,1.20
2024-02-19T00:58:17.758Z,1.83
2024-02-19T01:02:19.379Z,1.20
2024-02-19T01:06:20.886Z,2.27
2024-02-19T01:10:22.351Z,1.23
2024-02-19T01:14:23.835Z,1.60
2024-02-19T01:18:25.393Z,1.60
2024-02-19T01:22:28.203Z,1.73
2024-02-19T01:26:30.720Z,1.30
2024-02-19T01:30:32.367Z,1.50
2024-02-19T01:34:33.922Z,1.57
2024-02-19T01:38:37.034Z,1.80
2024-02-19T01:42:38.699Z,1.60
2024-02-19T01:46:42.850Z,1.70
2024-02-19T01:50:47.152Z,1.53
2024-02-19T01:54:49.327Z,1.73
2024-02-19T01:58:51.849Z,2.20
2024-02-19T02:02:53.717Z,1.53
2024-02-19T02:06:55.380Z,1.93
2024-02-19T02:10:56.940Z,2.10
2024-02-19T02:14:58.435Z,1.63
2024-02-19T02:19:00.086Z,1.70
2024-02-19T02:23:03.160Z,2.43
2024-02-19T02:27:04.850Z,1.93
2024-02-19T02:31:07.461Z,2.60
2024-02-19T02:35:09.063Z,2.40
2024-02-19T02:39:10.485Z,2.97
2024-02-19T02:43:12.076Z,2.37
2024-02-19T02:47:13.421Z,2.60
2024-02-19T02:51:15.364Z,2.53
2024-02-19T02:55:17.010Z,2.60
2024-02-19T02:59:18.489Z,2.57
2024-02-19T03:03:19.832Z,2.30
2024-02-19T03:07:21.939Z,2.57
2024-02-19T03:11:23.616Z,1.73
2024-02-19T03:15:25.065Z,2.13
2024-02-19T03:19:27.506Z,2.00
2024-02-19T03:23:29.010Z,2.00
2024-02-19T03:27:30.294Z,1.67
2024-02-19T03:31:31.850Z,1.80
2024-02-19T03:35:33.236Z,1.70
2024-02-19T03:39:34.586Z,1.53
2024-02-19T03:43:35.968Z,1.57
2024-02-19T03:47:37.356Z,1.33
2024-02-19T03:51:38.874Z,1.57
2024-02-19T03:55:40.459Z,1.00
2024-02-19T03:59:42.143Z,1.07
2024-02-19T04:03:43.744Z,0.70
2024-02-19T04:07:45.232Z,1.10
2024-02-19T04:11:46.890Z,1.07
2024-02-19T04:15:48.213Z,1.03
2024-02-19T04:19:49.648Z,1.00
2024-02-19T04:23:51.169Z,0.93
2024-02-19T04:27:53.402Z,1.23
2024-02-19T04:31:54.756Z,0.90
2024-02-19T04:35:56.201Z,0.97
2024-02-19T04:39:57.508Z,1.03
2024-02-19T04:43:58.796Z,1.17
2024-02-19T04:48:00.494Z,0.90
2024-02-19T04:52:02.447Z,1.00
2024-02-19T04:56:04.807Z,0.80
2024-02-19T05:00:07.301Z,1.40
2024-02-19T05:04:08.714Z,1.53
2024-02-19T05:08:10.188Z,1.40
2024-02-19T05:12:11.513Z,1.80
2024-02-19T05:16:12.885Z,1.60
2024-02-19T05:20:14.326Z,1.60
2024-02-19T05:24:17.867Z,2.10
2024-02-19T05:28:19.298Z,1.73
2024-02-19T05:32:20.813Z,1.90
2024-02-19T05:36:22.198Z,2.10
2024-02-19T05:40:23.885Z,2.30
2024-02-19T05:44:25.515Z,2.13
2024-02-19T05:48:26.976Z,2.07
2024-02-19T05:52:28.986Z,1.93
2024-02-19T05:56:30.494Z,2.20
2024-02-19T06:00:31.822Z,2.10
2024-02-19T06:04:33.372Z,2.07
2024-02-19T06:08:34.871Z,2.30
2024-02-19T06:12:37.373Z,2.40
2024-02-19T06:16:38.768Z,2.10
2024-02-19T06:20:40.089Z,2.30
2024-02-19T06:24:41.483Z,1.53
2024-02-19T06:28:42.865Z,1.87
2024-02-19T06:32:44.383Z,2.17
2024-02-19T06:36:45.797Z,1.83
2024-02-19T06:40:47.465Z,1.90
2024-02-19T06:44:48.805Z,2.30
2024-02-19T06:48:50.679Z,2.10
2024-02-19T06:52:52.323Z,2.43
2024-02-19T06:56:53.619Z,2.20
2024-02-19T07:00:55.032Z,2.57
2024-02-19T07:04:56.783Z,2.60
2024-02-19T07:08:58.340Z,1.70
2024-02-19T07:13:00.160Z,2.40
2024-02-19T07:17:01.537Z,2.03
2024-02-19T07:21:02.961Z,2.30
2024-02-19T07:25:13.581Z,2.30
2024-02-19T07:29:08.255Z,2.00
2024-02-19T07:33:09.700Z,1.87
2024-02-19T07:37:11.215Z,2.30
2024-02-19T07:41:16.375Z,2.27
2024-02-19T07:45:17.897Z,2.37
2024-02-19T07:49:19.276Z,1.43
2024-02-19T07:53:20.636Z,2.47
2024-02-19T07:57:22.951Z,1.73
2024-02-19T08:01:24.446Z,2.00
2024-02-19T08:05:25.861Z,2.03
2024-02-19T08:09:27.345Z,2.30
2024-02-19T08:13:28.882Z,2.30
2024-02-19T08:17:31.063Z,2.77
2024-02-19T08:21:32.362Z,2.23
2024-02-19T08:25:34.402Z,2.20
2024-02-19T08:29:35.902Z,2.20
2024-02-19T08:33:37.374Z,1.80
2024-02-19T08:37:38.864Z,2.13
2024-02-19T08:41:40.298Z,2.40
2024-02-19T08:45:42.190Z,2.43
2024-02-19T08:49:44.088Z,2.53
2024-02-19T08:53:47.703Z,1.70
2024-02-19T08:57:48.913Z,2.00
2024-02-19T09:01:50.360Z,3.20
2024-02-19T09:05:51.858Z,2.40
2024-02-19T09:09:53.441Z,2.40
2024-02-19T09:13:54.945Z,2.07
2024-02-19T09:17:56.455Z,2.60
2024-02-19T09:21:57.905Z,1.93
2024-02-19T09:25:59.310Z,2.00
2024-02-19T09:30:00.794Z,1.80
2024-02-19T09:34:02.224Z,1.80
2024-02-19T09:38:03.912Z,2.00
2024-02-19T09:42:05.735Z,1.50
2024-02-19T09:46:10.925Z,1.73
2024-02-19T09:50:15.326Z,2.23
2024-02-19T09:54:16.849Z,1.60
2024-02-19T09:58:18.430Z,1.80
2024-02-19T10:02:20.190Z,2.07
2024-02-19T10:06:23.505Z,2.07
2024-02-19T10:10:25.606Z,1.57
2024-02-19T10:14:27.672Z,2.97
2024-02-19T10:18:29.128Z,1.87
2024-02-19T10:22:30.554Z,1.70
2024-02-19T10:26:32.009Z,1.50
2024-02-19T10:30:33.385Z,1.67
2024-02-19T10:34:35.220Z,1.40
2024-02-19T10:38:36.771Z,1.40
2024-02-19T10:42:39.107Z,1.30
2024-02-19T10:46:41.084Z,1.63
2024-02-19T10:50:42.521Z,1.60
2024-02-19T10:54:45.256Z,1.50
2024-02-19T10:58:54.781Z,1.57
2024-02-19T11:03:06.380Z,1.70
2024-02-19T11:07:08.977Z,1.30
2024-02-19T11:11:10.749Z,2.03
2024-02-19T11:15:16.754Z,1.60
2024-02-19T11:19:22.388Z,4.00
2024-02-19T11:23:27.253Z,1.93
2024-02-19T11:27:28.917Z,1.63
2024-02-19T11:31:30.512Z,1.83
2024-02-19T11:35:36.555Z,3.53
2024-02-19T11:39:38.823Z,3.30
2024-02-19T11:43:40.799Z,5.50
2024-02-19T11:47:43.123Z,8.97
2024-02-19T11:51:51.636Z,3.97
2024-02-19T11:55:59.926Z,4.03
2024-02-19T12:00:03.944Z,1.97
2024-02-19T12:04:07.233Z,3.70
2024-02-19T12:08:09.509Z,1.40
2024-02-19T12:12:10.911Z,1.53
2024-02-19T12:16:12.291Z,1.57
2024-02-19T12:20:14.862Z,0.90
2024-02-19T12:24:17.048Z,1.80
2024-02-19T12:28:19.616Z,2.10
2024-02-19T12:32:23.036Z,1.60
2024-02-19T12:36:25.116Z,2.33
2024-02-19T12:40:27.791Z,1.60
2024-02-19T12:44:30.514Z,1.70
2024-02-19T12:48:34.887Z,1.57
2024-02-19T12:52:37.052Z,1.77
2024-02-19T12:56:40.495Z,1.20
2024-02-19T13:00:43.156Z,1.53
2024-02-19T13:04:46.228Z,1.70
2024-02-19T13:08:50.540Z,2.40
2024-02-19T13:12:52.495Z,1.27
2024-02-19T13:17:02.559Z,2.07
2024-02-19T13:20:58.139Z,1.20
2024-02-19T13:25:00.015Z,1.40
2024-02-19T13:29:03.039Z,1.60
2024-02-19T13:33:06.822Z,1.63
2024-02-19T13:37:08.293Z,1.97
2024-02-19T13:41:09.885Z,2.00
2024-02-19T13:45:11.271Z,2.13
2024-02-19T13:49:12.816Z,1.60
2024-02-19T13:53:14.278Z,2.00
2024-02-19T13:57:16.134Z,2.13
2024-02-19T14:01:17.563Z,2.57
2024-02-19T14:05:19.443Z,10.17
2024-02-19T14:09:21.385Z,2.47
2024-02-19T14:13:23.724Z,1.60
2024-02-19T14:17:25.137Z,2.40
2024-02-19T14:21:26.689Z,2.20
2024-02-19T14:25:28.116Z,2.00
2024-02-19T14:29:31.599Z,2.17
2024-02-19T14:33:33.126Z,3.03
2024-02-19T14:37:41.568Z,3.00
2024-02-19T14:41:43.902Z,2.47
2024-02-19T14:45:45.905Z,2.93
2024-02-19T14:49:49.026Z,3.20
2024-02-19T14:53:53.051Z,3.37
2024-02-19T14:57:54.672Z,2.30
2024-02-19T15:01:57.146Z,2.90
2024-02-19T15:06:00.032Z,3.77
2024-02-19T15:10:02.723Z,2.80
2024-02-19T15:14:05.462Z,3.47
2024-02-19T15:18:08.605Z,2.53
2024-02-19T15:22:11.256Z,3.00
2024-02-19T15:26:15.107Z,3.87
2024-02-19T15:30:16.705Z,3.00
2024-02-19T15:34:18.634Z,3.60
2024-02-19T15:38:20.756Z,4.73
2024-02-19T15:42:23.341Z,3.90
2024-02-19T15:46:26.218Z,4.33
2024-02-19T15:50:28.378Z,5.00
2024-02-19T15:54:30.441Z,4.60
2024-02-19T15:58:35.727Z,5.37
2024-02-19T16:02:39.533Z,4.53
2024-02-19T16:06:42.083Z,4.73
2024-02-19T16:10:45.696Z,5.17
2024-02-19T16:14:47.426Z,7.37
2024-02-19T16:18:49.367Z,7.00
2024-02-19T16:22:53.332Z,6.30
2024-02-19T16:26:55.017Z,7.67
2024-02-19T16:30:58.286Z,7.10
2024-02-19T16:35:00.349Z,6.20
2024-02-19T16:39:02.655Z,5.90
2024-02-19T16:43:07.868Z,6.80
2024-02-19T16:47:09.915Z,7.13
2024-02-19T16:51:12.493Z,7.17
2024-02-19T16:55:15.536Z,5.80
2024-02-19T16:59:17.481Z,6.77
2024-02-19T17:03:19.874Z,7.40
2024-02-19T17:07:23.206Z,7.50
2024-02-19T17:11:25.511Z,8.17
2024-02-19T17:15:26.836Z,8.00
2024-02-19T17:19:28.275Z,8.10
2024-02-19T17:23:29.718Z,7.65
2024-02-19T17:27:31.133Z,6.80
2024-02-19T17:31:33.548Z,7.80
2024-02-19T17:35:36.807Z,6.73
2024-02-19T17:39:38.120Z,8.43
2024-02-19T17:43:39.838Z,7.20
2024-02-19T17:47:41.143Z,7.03
2024-02-19T17:51:42.472Z,8.17
2024-02-19T17:55:45.409Z,6.70
2024-02-19T17:59:46.811Z,7.87
2024-02-19T18:03:48.246Z,7.33
2024-02-19T18:07:49.697Z,7.80
2024-02-19T18:11:51.075Z,8.67
2024-02-19T18:15:52.594Z,8.53
2024-02-19T18:19:55.411Z,7.10
2024-02-19T18:23:59.287Z,8.27
2024-02-19T18:28:01.478Z,7.70
2024-02-19T18:32:03.156Z,8.27
2024-02-19T18:36:06.959Z,6.97
2024-02-19T18:40:09.088Z,7.20
2024-02-19T18:44:10.480Z,7.10
2024-02-19T18:48:11.813Z,7.97
2024-02-19T18:52:13.162Z,8.60
2024-02-19T18:56:15.210Z,6.70
2024-02-19T19:00:18.136Z,6.90
2024-02-19T19:04:19.560Z,7.53
2024-02-19T19:08:20.990Z,7.40
2024-02-19T19:12:22.372Z,6.23
2024-02-19T19:16:23.811Z,6.10
2024-02-19T19:20:25.703Z,6.03
2024-02-19T19:24:27.093Z,6.20
2024-02-19T19:28:28.516Z,6.73
2024-02-19T19:32:30.627Z,5.93
2024-02-19T19:36:32.071Z,7.03
2024-02-19T19:40:33.549Z,7.33
2024-02-19T19:44:34.904Z,6.20
2024-02-19T19:48:36.400Z,7.93
2024-02-19T19:52:37.901Z,8.93
2024-02-19T19:56:40.941Z,6.73
2024-02-19T20:00:43.528Z,7.03
2024-02-19T20:04:48.342Z,6.57
2024-02-19T20:08:50.688Z,5.37
2024-02-19T20:12:54.178Z,5.67
2024-02-19T20:16:55.469Z,5.70
2024-02-19T20:20:56.903Z,4.97
2024-02-19T20:24:58.373Z,5.30
2024-02-19T20:28:59.622Z,3.77
2024-02-19T20:33:02.952Z,4.07
2024-02-19T20:37:04.343Z,4.77
2024-02-19T20:41:05.636Z,2.60
2024-02-19T20:45:08.610Z,2.17
2024-02-19T20:49:10.027Z,1.80
2024-02-19T20:53:13.233Z,1.73
2024-02-19T20:57:14.545Z,1.47
2024-02-19T21:01:16.018Z,1.60
2024-02-19T21:05:19.583Z,1.10
2024-02-19T21:09:21.211Z,1.80
2024-02-19T21:13:22.873Z,1.50
2024-02-19T21:17:26.107Z,1.40
2024-02-19T21:21:34.440Z,1.70
2024-02-19T21:25:31.796Z,1.33
2024-02-19T21:29:33.143Z,1.40
2024-02-19T21:33:34.518Z,1.47
2024-02-19T21:37:35.911Z,1.50
2024-02-19T21:41:37.169Z,1.70
2024-02-19T21:45:38.728Z,1.40
2024-02-19T21:49:41.932Z,1.57
2024-02-19T21:53:43.205Z,1.67
2024-02-19T21:57:44.541Z,1.97
2024-02-19T22:01:45.915Z,2.13
2024-02-19T22:05:47.404Z,2.00
2024-02-19T22:09:51.089Z,1.60
2024-02-19T22:13:52.513Z,2.40
2024-02-19T22:17:53.896Z,2.00
2024-02-19T22:21:57.208Z,1.83
2024-02-19T22:25:58.651Z,2.33
2024-02-19T22:30:00.804Z,2.43
2024-02-19T22:34:02.236Z,2.00
2024-02-19T22:38:03.868Z,2.13
2024-02-19T22:42:05.533Z,2.00
2024-02-19T22:46:06.900Z,2.13
2024-02-19T22:50:08.620Z,2.00
2024-02-19T22:54:10.093Z,2.37
2024-02-19T22:58:15.476Z,2.50
2024-02-19T23:02:16.649Z,2.60
2024-02-19T23:06:18.160Z,2.87
2024-02-19T23:10:19.544Z,2.80
2024-02-19T23:14:20.986Z,2.40
2024-02-19T23:18:22.678Z,2.47
2024-02-19T23:22:24.286Z,2.17
2024-02-19T23:26:25.756Z,2.90
2024-02-19T23:30:29.005Z,2.07
2024-02-19T23:34:30.872Z,2.10
2024-02-19T23:38:34.167Z,1.80
2024-02-19T23:42:35.462Z,1.90
2024-02-19T23:46:36.920Z,2.03
2024-02-19T23:50:38.271Z,2.07
2024-02-19T23:54:40.440Z,2.80
2024-02-19T23:58:42.007Z,2.40
